createdAt,value
2022-10-10T00:00:32.379Z,4.50
2022-10-10T00:04:35.155Z,4.43
2022-10-10T00:08:35.472Z,4.00
2022-10-10T00:12:35.663Z,5.10
2022-10-10T00:16:36.271Z,5.07
2022-10-10T00:20:39.124Z,4.53
2022-10-10T00:24:39.363Z,4.50
2022-10-10T00:28:40.686Z,4.90
2022-10-10T00:32:41.368Z,4.47
2022-10-10T00:36:44.140Z,4.90
2022-10-10T00:40:50.177Z,4.70
2022-10-10T00:45:25.016Z,4.80
2022-10-10T00:49:32.461Z,5.40
2022-10-10T00:53:41.131Z,5.53
2022-10-10T00:57:41.467Z,4.70
2022-10-10T01:01:42.267Z,4.80
2022-10-10T01:05:44.876Z,4.60
2022-10-10T01:09:49.949Z,4.67
2022-10-10T01:14:04.028Z,5.27
2022-10-10T01:18:16.133Z,6.60
2022-10-10T01:22:32.442Z,6.60
2022-10-10T01:27:21.395Z,7.77
2022-10-10T01:31:28.462Z,7.40
2022-10-10T01:35:48.185Z,6.83
2022-10-10T01:39:59.905Z,6.60
2022-10-10T01:44:02.515Z,7.37
2022-10-10T01:48:08.925Z,7.90
2022-10-10T01:52:25.369Z,8.07
2022-10-10T01:56:43.545Z,8.83
2022-10-10T02:00:56.743Z,8.70
2022-10-10T02:05:06.011Z,9.60
2022-10-10T02:09:12.856Z,8.73
2022-10-10T02:13:15.881Z,9.63
2022-10-10T02:17:19.413Z,8.47
2022-10-10T02:21:23.216Z,9.47
2022-10-10T02:25:29.699Z,9.33
2022-10-10T02:29:36.702Z,9.70
2022-10-10T02:33:47.821Z,8.77
2022-10-10T02:37:52.660Z,6.93
2022-10-10T02:41:55.470Z,7.33
2022-10-10T02:45:55.698Z,7.03
2022-10-10T02:49:55.876Z,7.67
2022-10-10T02:53:58.594Z,8.60
2022-10-10T02:57:58.844Z,7.83
2022-10-10T03:01:59.072Z,6.57
2022-10-10T03:05:59.357Z,7.07
2022-10-10T03:10:02.256Z,7.53
2022-10-10T03:14:02.496Z,6.40
2022-10-10T03:18:02.676Z,6.77
2022-10-10T03:22:02.820Z,7.07
2022-10-10T03:26:07.283Z,7.60
2022-10-10T03:30:09.291Z,7.37
2022-10-10T03:34:09.580Z,7.40
2022-10-10T03:38:10.768Z,6.70
2022-10-10T03:42:13.479Z,6.63
2022-10-10T03:46:16.255Z,6.90
2022-10-10T03:50:17.103Z,6.63
2022-10-10T03:54:17.323Z,6.40
2022-10-10T03:58:23.655Z,5.77
2022-10-10T04:02:24.158Z,5.80
2022-10-10T04:06:24.462Z,7.40
2022-10-10T04:10:24.592Z,8.23
2022-10-10T04:14:27.682Z,7.40
2022-10-10T04:18:28.440Z,7.23
2022-10-10T04:22:28.645Z,7.23
2022-10-10T04:26:29.017Z,6.63
2022-10-10T04:30:35.836Z,6.67
2022-10-10T04:34:36.060Z,6.37
2022-10-10T04:38:36.282Z,5.60
2022-10-10T04:42:37.452Z,6.30
2022-10-10T04:46:40.326Z,6.53
2022-10-10T04:50:40.630Z,6.53
2022-10-10T04:54:41.015Z,5.80
2022-10-10T04:58:41.276Z,6.20
2022-10-10T05:02:44.040Z,5.30
2022-10-10T05:06:44.294Z,6.30
2022-10-10T05:10:44.559Z,6.07
2022-10-10T05:14:48.156Z,6.20
2022-10-10T05:18:51.500Z,6.43
2022-10-10T05:22:51.895Z,7.00
2022-10-10T05:26:52.233Z,8.00
2022-10-10T05:30:54.020Z,8.00
2022-10-10T05:34:56.743Z,11.83
2022-10-10T05:38:57.707Z,7.77
2022-10-10T05:42:58.358Z,12.77
2022-10-10T05:46:58.504Z,10.23
2022-10-10T05:51:03.362Z,9.30
2022-10-10T05:55:03.633Z,10.80
2022-10-10T05:59:03.941Z,8.43
2022-10-10T06:03:04.878Z,9.50
2022-10-10T06:07:07.771Z,7.40
2022-10-10T06:11:11.196Z,6.00
2022-10-10T06:15:13.308Z,6.27
2022-10-10T06:19:15.261Z,6.63
2022-10-10T06:23:18.329Z,6.77
2022-10-10T06:27:18.482Z,7.27
2022-10-10T06:31:19.203Z,7.20
2022-10-10T06:35:19.696Z,7.27
2022-10-10T06:39:22.564Z,6.00
2022-10-10T06:43:22.699Z,5.63
2022-10-10T06:47:22.993Z,5.00
2022-10-10T06:51:23.152Z,5.07
2022-10-10T06:55:25.991Z,4.97
2022-10-10T06:59:26.131Z,4.30
2022-10-10T07:03:26.977Z,11.50
2022-10-10T07:07:27.195Z,5.03
2022-10-10T07:11:30.278Z,4.77
2022-10-10T07:15:30.447Z,4.97
2022-10-10T07:19:30.584Z,4.53
2022-10-10T07:23:31.727Z,4.90
2022-10-10T07:27:34.476Z,4.83
2022-10-10T07:31:35.901Z,4.63
2022-10-10T07:35:36.145Z,4.47
2022-10-10T07:39:36.289Z,4.97
2022-10-10T07:43:39.989Z,4.70
2022-10-10T07:47:40.229Z,4.93
2022-10-10T07:51:41.220Z,4.63
2022-10-10T07:55:42.791Z,5.03
2022-10-10T07:59:45.856Z,4.57
2022-10-10T08:03:46.428Z,4.03
2022-10-10T08:07:46.619Z,4.20
2022-10-10T08:11:46.887Z,4.20
2022-10-10T08:15:53.881Z,4.20
2022-10-10T08:19:54.092Z,3.60
2022-10-10T08:23:54.264Z,3.77
2022-10-10T08:27:54.451Z,3.70
2022-10-10T08:31:57.260Z,3.77
2022-10-10T08:35:57.587Z,3.80
2022-10-10T08:39:57.731Z,3.73
2022-10-10T08:44:04.505Z,4.10
2022-10-10T08:48:15.141Z,3.70
2022-10-10T08:52:30.754Z,3.40
2022-10-10T08:56:36.076Z,3.40
2022-10-10T09:00:45.108Z,3.60
2022-10-10T09:04:47.870Z,3.38
2022-10-10T09:09:04.115Z,3.53
2022-10-10T09:13:16.910Z,3.50
2022-10-10T09:17:35.710Z,3.15
2022-10-10T09:21:43.666Z,3.63
2022-10-10T09:25:53.929Z,3.72
2022-10-10T09:30:04.264Z,3.20
2022-10-10T09:34:14.745Z,3.22
2022-10-10T09:38:34.622Z,3.78
2022-10-10T09:42:41.423Z,3.40
2022-10-10T09:46:42.184Z,3.00
2022-10-10T09:50:43.880Z,3.20
2022-10-10T09:54:49.330Z,3.40
2022-10-10T09:58:52.303Z,3.25
2022-10-10T10:03:05.900Z,3.10
2022-10-10T10:07:21.468Z,3.17
2022-10-10T10:11:34.506Z,3.08
2022-10-10T10:15:35.596Z,3.20
2022-10-10T10:19:39.358Z,3.10
2022-10-10T10:23:46.853Z,3.08
2022-10-10T10:27:49.694Z,2.88
2022-10-10T10:32:03.682Z,2.95
2022-10-10T10:36:21.843Z,2.95
2022-10-10T10:40:33.717Z,3.28
2022-10-10T10:44:48.297Z,2.85
2022-10-10T10:48:50.712Z,2.90
2022-10-10T10:53:02.655Z,3.00
2022-10-10T10:57:31.774Z,3.55
2022-10-10T11:01:56.226Z,3.20
2022-10-10T11:06:14.651Z,3.35
2022-10-10T11:10:31.419Z,3.30
2022-10-10T11:14:53.967Z,3.25
2022-10-10T11:19:18.654Z,2.97
2022-10-10T11:23:25.372Z,2.85
2022-10-10T11:27:32.935Z,2.90
2022-10-10T11:31:41.662Z,2.50
2022-10-10T11:35:51.283Z,3.00
2022-10-10T11:39:59.359Z,2.72
2022-10-10T11:44:08.635Z,3.30
2022-10-10T11:48:26.251Z,3.20
2022-10-10T11:52:40.257Z,3.00
2022-10-10T11:56:45.621Z,2.92
2022-10-10T12:00:54.943Z,3.05
2022-10-10T12:04:55.736Z,2.72
2022-10-10T12:09:06.563Z,2.72
2022-10-10T12:13:27.679Z,3.08
2022-10-10T12:17:32.574Z,3.00
2022-10-10T12:21:35.027Z,2.97
2022-10-10T12:25:46.335Z,2.60
2022-10-10T12:30:22.545Z,2.83
2022-10-10T12:34:45.279Z,3.22
2022-10-10T12:39:36.881Z,3.13
2022-10-10T12:43:52.127Z,2.97
2022-10-10T12:48:05.035Z,2.88
2022-10-10T12:52:11.114Z,2.80
2022-10-10T12:56:17.068Z,3.50
2022-10-10T13:00:24.996Z,3.40
2022-10-10T13:04:28.474Z,3.30
2022-10-10T13:08:31.809Z,3.50
2022-10-10T13:12:34.529Z,3.17
2022-10-10T13:16:47.667Z,3.58
2022-10-10T13:20:48.501Z,3.92
2022-10-10T13:24:53.102Z,3.60
2022-10-10T13:28:54.505Z,3.60
2022-10-10T13:32:59.460Z,3.65
2022-10-10T13:37:02.649Z,3.90
2022-10-10T13:41:05.960Z,3.40
2022-10-10T13:45:34.703Z,4.60
2022-10-10T13:49:37.477Z,3.72
2022-10-10T13:53:48.430Z,5.30
2022-10-10T13:57:50.742Z,5.75
2022-10-10T14:02:01.327Z,3.47
2022-10-10T14:06:04.495Z,6.20
2022-10-10T14:10:11.664Z,5.65
2022-10-10T14:14:24.096Z,4.00
2022-10-10T14:18:26.914Z,4.47
2022-10-10T14:22:29.764Z,4.50
2022-10-10T14:26:30.016Z,3.78
2022-10-10T14:30:30.401Z,4.18
2022-10-10T14:34:30.570Z,5.00
2022-10-10T14:38:33.708Z,4.70
2022-10-10T14:42:34.079Z,5.53
2022-10-10T14:46:34.390Z,4.60
2022-10-10T14:50:38.733Z,5.10
2022-10-10T14:54:41.701Z,5.15
2022-10-10T14:58:41.943Z,4.60
2022-10-10T15:02:45.434Z,5.60
2022-10-10T15:07:11.748Z,5.50
2022-10-10T15:11:09.166Z,5.32
2022-10-10T15:15:11.697Z,5.85
2022-10-10T15:19:12.889Z,5.43
2022-10-10T15:23:13.366Z,4.68
2022-10-10T15:27:16.514Z,4.72
2022-10-10T15:31:16.703Z,4.57
2022-10-10T15:35:20.175Z,4.80
2022-10-10T15:39:20.399Z,4.85
2022-10-10T15:43:23.684Z,4.60
2022-10-10T15:47:24.608Z,5.13
2022-10-10T15:51:24.850Z,4.95
2022-10-10T15:55:24.997Z,5.35
2022-10-10T15:59:27.821Z,5.53
2022-10-10T16:03:28.120Z,5.80
2022-10-10T16:07:30.408Z,5.72
2022-10-10T16:11:31.697Z,5.97
2022-10-10T16:15:34.470Z,6.32
2022-10-10T16:19:34.790Z,5.68
2022-10-10T16:23:35.729Z,6.60
2022-10-10T16:27:38.944Z,6.20
2022-10-10T16:31:43.109Z,6.75
2022-10-10T16:35:43.235Z,6.90
2022-10-10T16:39:43.356Z,5.20
2022-10-10T16:43:46.502Z,5.18
2022-10-10T16:47:49.347Z,5.25
2022-10-10T16:51:49.684Z,4.90
2022-10-10T16:55:50.092Z,6.38
2022-10-10T16:59:50.350Z,10.98
2022-10-10T17:03:54.405Z,8.45
2022-10-10T17:07:54.769Z,6.70
2022-10-10T17:11:54.988Z,6.18
2022-10-10T17:15:55.497Z,5.30
2022-10-10T17:19:58.328Z,7.47
2022-10-10T17:23:58.993Z,12.53
2022-10-10T17:27:59.463Z,12.83
2022-10-10T17:32:04.069Z,12.03
2022-10-10T17:36:15.648Z,18.50
2022-10-10T17:40:16.679Z,15.37
2022-10-10T17:44:16.920Z,13.13
2022-10-10T17:48:17.183Z,12.37
2022-10-10T17:52:21.528Z,10.50
2022-10-10T17:56:25.083Z,13.40
2022-10-10T18:00:25.537Z,10.83
2022-10-10T18:04:25.704Z,11.80
2022-10-10T18:08:28.432Z,12.23
2022-10-10T18:12:28.670Z,14.00
2022-10-10T18:16:32.416Z,22.07
2022-10-10T18:20:32.619Z,16.17
2022-10-10T18:24:35.434Z,18.03
2022-10-10T18:28:39.097Z,19.50
2022-10-10T18:32:39.305Z,17.27
2022-10-10T18:36:42.531Z,24.07
2022-10-10T18:40:45.441Z,26.40
2022-10-10T18:44:45.916Z,22.77
2022-10-10T18:48:51.347Z,22.67
2022-10-10T18:52:56.641Z,23.00
2022-10-10T18:56:59.566Z,22.20
2022-10-10T19:01:03.096Z,19.90
2022-10-10T19:05:03.615Z,16.70
2022-10-10T19:09:05.510Z,24.13
2022-10-10T19:13:08.253Z,20.10
2022-10-10T19:17:09.121Z,22.80
2022-10-10T19:21:10.112Z,21.43
2022-10-10T19:25:40.869Z,20.63
2022-10-10T19:30:15.404Z,19.67
2022-10-10T19:34:28.463Z,19.80
2022-10-10T19:38:46.477Z,21.30
2022-10-10T19:43:08.513Z,24.87
2022-10-10T19:47:11.464Z,27.93
2022-10-10T19:51:15.265Z,23.27
2022-10-10T19:55:18.353Z,23.30
2022-10-10T19:59:18.547Z,25.13
2022-10-10T20:03:22.865Z,25.23
2022-10-10T20:07:23.039Z,25.07
2022-10-10T20:11:23.694Z,22.40
2022-10-10T20:15:23.860Z,20.03
2022-10-10T20:19:27.643Z,20.13
2022-10-10T20:23:29.235Z,19.53
2022-10-10T20:27:31.464Z,14.90
2022-10-10T20:31:35.684Z,13.03
2022-10-10T20:35:39.928Z,10.53
2022-10-10T20:39:40.128Z,12.13
2022-10-10T20:43:42.166Z,10.40
2022-10-10T20:47:42.295Z,9.03
2022-10-10T20:51:48.768Z,9.43
2022-10-10T20:55:48.919Z,10.50
2022-10-10T20:59:49.121Z,9.80
2022-10-10T21:03:50.609Z,9.47
2022-10-10T21:07:53.403Z,8.73
2022-10-10T21:11:54.309Z,9.40
2022-10-10T21:15:54.612Z,9.87
2022-10-10T21:19:55.096Z,10.20
2022-10-10T21:23:58.637Z,9.50
2022-10-10T21:27:58.761Z,10.70
2022-10-10T21:31:59.009Z,11.50
2022-10-10T21:36:00.436Z,11.33
2022-10-10T21:40:03.174Z,15.47
2022-10-10T21:44:03.736Z,15.13
2022-10-10T21:48:03.918Z,14.30
2022-10-10T21:52:04.343Z,14.27
2022-10-10T21:56:11.275Z,13.80
2022-10-10T22:00:14.130Z,13.57
2022-10-10T22:04:14.390Z,14.10
2022-10-10T22:08:14.834Z,15.40
2022-10-10T22:12:17.661Z,14.03
2022-10-10T22:16:17.925Z,13.67
2022-10-10T22:20:18.123Z,12.73
2022-10-10T22:24:18.726Z,13.10
2022-10-10T22:28:22.026Z,13.50
2022-10-10T22:32:22.215Z,13.87
2022-10-10T22:36:22.432Z,14.00
2022-10-10T22:40:23.432Z,14.23
2022-10-10T22:44:26.695Z,12.13
2022-10-10T22:48:27.518Z,11.77
2022-10-10T22:52:28.524Z,11.00
2022-10-10T22:56:29.099Z,11.07
2022-10-10T23:00:32.001Z,11.50
2022-10-10T23:04:32.192Z,11.10
2022-10-10T23:08:32.457Z,12.07
2022-10-10T23:12:32.679Z,12.03
2022-10-10T23:16:39.683Z,11.43
2022-10-10T23:20:40.781Z,11.23
2022-10-10T23:24:41.383Z,12.00
2022-10-10T23:28:44.822Z,11.33
2022-10-10T23:32:48.213Z,10.53
2022-10-10T23:36:48.368Z,10.13
2022-10-10T23:40:48.491Z,10.73
2022-10-10T23:44:48.707Z,10.67
2022-10-10T23:48:51.590Z,10.77
2022-10-10T23:52:51.717Z,10.70
2022-10-10T23:56:51.860Z,11.07
